sensor_id;sensor_type;location;lat;lon;timestamp;P1;durP1;ratioP1;P2;durP2;ratioP2
15112;SDS011;7657;50.140;7.076;2023-02-26T00:00:03;4.07;;;1.40;;
15112;SDS011;7657;50.140;7.076;2023-02-26T00:02:33;3.87;;;1.30;;
15112;SDS011;7657;50.140;7.076;2023-02-26T00:05:02;3.80;;;1.40;;
15112;SDS011;7657;50.140;7.076;2023-02-26T00:07:30;4.17;;;1.87;;
15112;SDS011;7657;50.140;7.076;2023-02-26T00:09:57;6.13;;;1.30;;
15112;SDS011;7657;50.140;7.076;2023-02-26T00:12:25;2.97;;;1.37;;
15112;SDS011;7657;50.140;7.076;2023-02-26T00:14:53;3.60;;;1.60;;
15112;SDS011;7657;50.140;7.076;2023-02-26T00:17:25;3.70;;;1.60;;
15112;SDS011;7657;50.140;7.076;2023-02-26T00:20:03;7.80;;;1.13;;
15112;SDS011;7657;50.140;7.076;2023-02-26T00:22:33;3.43;;;1.30;;
15112;SDS011;7657;50.140;7.076;2023-02-26T00:25:00;4.80;;;1.20;;
15112;SDS011;7657;50.140;7.076;2023-02-26T00:27:27;3.73;;;1.37;;
15112;SDS011;7657;50.140;7.076;2023-02-26T00:29:54;4.17;;;1.60;;
15112;SDS011;7657;50.140;7.076;2023-02-26T00:32:21;5.40;;;1.67;;
15112;SDS011;7657;50.140;7.076;2023-02-26T00:34:49;6.70;;;1.37;;
15112;SDS011;7657;50.140;7.076;2023-02-26T00:37:22;4.37;;;1.33;;
15112;SDS011;7657;50.140;7.076;2023-02-26T00:40:00;2.73;;;1.10;;
15112;SDS011;7657;50.140;7.076;2023-02-26T00:42:33;4.30;;;1.50;;
15112;SDS011;7657;50.140;7.076;2023-02-26T00:45:01;4.93;;;1.23;;
15112;SDS011;7657;50.140;7.076;2023-02-26T00:47:30;5.80;;;1.40;;
15112;SDS011;7657;50.140;7.076;2023-02-26T00:50:04;4.57;;;1.57;;
15112;SDS011;7657;50.140;7.076;2023-02-26T00:52:42;2.80;;;1.40;;
15112;SDS011;7657;50.140;7.076;2023-02-26T00:55:15;3.33;;;1.17;;
15112;SDS011;7657;50.140;7.076;2023-02-26T00:57:43;5.10;;;1.97;;
15112;SDS011;7657;50.140;7.076;2023-02-26T01:00:12;6.17;;;1.40;;
15112;SDS011;7657;50.140;7.076;2023-02-26T01:02:39;4.27;;;1.53;;
15112;SDS011;7657;50.140;7.076;2023-02-26T01:05:08;5.97;;;1.83;;
15112;SDS011;7657;50.140;7.076;2023-02-26T01:07:37;5.97;;;1.37;;
15112;SDS011;7657;50.140;7.076;2023-02-26T01:10:11;7.20;;;2.20;;
15112;SDS011;7657;50.140;7.076;2023-02-26T01:12:39;6.57;;;2.57;;
15112;SDS011;7657;50.140;7.076;2023-02-26T01:15:07;6.33;;;2.33;;
15112;SDS011;7657;50.140;7.076;2023-02-26T01:17:36;7.03;;;2.53;;
15112;SDS011;7657;50.140;7.076;2023-02-26T01:20:08;6.27;;;2.33;;
15112;SDS011;7657;50.140;7.076;2023-02-26T01:22:41;4.37;;;2.60;;
15112;SDS011;7657;50.140;7.076;2023-02-26T01:25:15;5.07;;;2.73;;
15112;SDS011;7657;50.140;7.076;2023-02-26T01:27:45;5.67;;;2.00;;
15112;SDS011;7657;50.140;7.076;2023-02-26T01:30:13;6.33;;;2.97;;
15112;SDS011;7657;50.140;7.076;2023-02-26T01:32:41;5.57;;;2.20;;
15112;SDS011;7657;50.140;7.076;2023-02-26T01:35:18;5.33;;;2.23;;
15112;SDS011;7657;50.140;7.076;2023-02-26T01:37:56;6.13;;;2.60;;
15112;SDS011;7657;50.140;7.076;2023-02-26T01:40:37;6.13;;;2.47;;
15112;SDS011;7657;50.140;7.076;2023-02-26T01:43:23;5.13;;;2.10;;
15112;SDS011;7657;50.140;7.076;2023-02-26T01:45:54;4.47;;;2.00;;
15112;SDS011;7657;50.140;7.076;2023-02-26T01:48:30;4.93;;;1.90;;
15112;SDS011;7657;50.140;7.076;2023-02-26T01:51:02;4.63;;;2.20;;
15112;SDS011;7657;50.140;7.076;2023-02-26T01:53:30;3.77;;;2.00;;
15112;SDS011;7657;50.140;7.076;2023-02-26T01:55:59;6.67;;;2.40;;
15112;SDS011;7657;50.140;7.076;2023-02-26T01:58:31;5.13;;;2.00;;
15112;SDS011;7657;50.140;7.076;2023-02-26T02:01:01;6.43;;;2.67;;
15112;SDS011;7657;50.140;7.076;2023-02-26T02:03:28;3.97;;;2.30;;
15112;SDS011;7657;50.140;7.076;2023-02-26T02:05:59;2.53;;;2.10;;
15112;SDS011;7657;50.140;7.076;2023-02-26T02:08:29;6.07;;;2.37;;
15112;SDS011;7657;50.140;7.076;2023-02-26T02:11:01;4.83;;;2.27;;
15112;SDS011;7657;50.140;7.076;2023-02-26T02:13:32;3.50;;;2.00;;
15112;SDS011;7657;50.140;7.076;2023-02-26T02:16:08;4.23;;;2.20;;
15112;SDS011;7657;50.140;7.076;2023-02-26T02:18:42;3.80;;;2.13;;
15112;SDS011;7657;50.140;7.076;2023-02-26T02:21:34;10.03;;;2.33;;
15112;SDS011;7657;50.140;7.076;2023-02-26T02:24:16;4.70;;;1.73;;
15112;SDS011;7657;50.140;7.076;2023-02-26T02:26:56;3.70;;;2.00;;
15112;SDS011;7657;50.140;7.076;2023-02-26T02:29:42;8.17;;;2.30;;
15112;SDS011;7657;50.140;7.076;2023-02-26T02:32:31;3.03;;;1.80;;
15112;SDS011;7657;50.140;7.076;2023-02-26T02:35:06;6.17;;;2.33;;
15112;SDS011;7657;50.140;7.076;2023-02-26T02:37:40;4.23;;;2.07;;
15112;SDS011;7657;50.140;7.076;2023-02-26T02:40:12;4.07;;;1.97;;
15112;SDS011;7657;50.140;7.076;2023-02-26T02:42:43;4.07;;;2.30;;
15112;SDS011;7657;50.140;7.076;2023-02-26T02:45:16;5.17;;;2.30;;
15112;SDS011;7657;50.140;7.076;2023-02-26T02:47:47;3.30;;;2.23;;
15112;SDS011;7657;50.140;7.076;2023-02-26T02:50:24;3.10;;;1.90;;
15112;SDS011;7657;50.140;7.076;2023-02-26T02:52:56;3.90;;;2.40;;
15112;SDS011;7657;50.140;7.076;2023-02-26T02:55:26;2.13;;;1.87;;
15112;SDS011;7657;50.140;7.076;2023-02-26T02:57:59;3.90;;;2.20;;
15112;SDS011;7657;50.140;7.076;2023-02-26T03:00:30;5.63;;;2.77;;
15112;SDS011;7657;50.140;7.076;2023-02-26T03:03:02;3.93;;;2.10;;
15112;SDS011;7657;50.140;7.076;2023-02-26T03:05:34;4.47;;;2.40;;
15112;SDS011;7657;50.140;7.076;2023-02-26T03:08:02;4.23;;;2.43;;
15112;SDS011;7657;50.140;7.076;2023-02-26T03:10:32;4.57;;;2.37;;
15112;SDS011;7657;50.140;7.076;2023-02-26T03:12:59;3.97;;;2.13;;
15112;SDS011;7657;50.140;7.076;2023-02-26T03:15:30;7.13;;;3.03;;
15112;SDS011;7657;50.140;7.076;2023-02-26T03:18:05;3.67;;;2.60;;
15112;SDS011;7657;50.140;7.076;2023-02-26T03:20:55;4.53;;;2.50;;
15112;SDS011;7657;50.140;7.076;2023-02-26T03:23:30;5.57;;;2.53;;
15112;SDS011;7657;50.140;7.076;2023-02-26T03:26:02;3.00;;;2.40;;
15112;SDS011;7657;50.140;7.076;2023-02-26T03:28:37;3.40;;;2.50;;
15112;SDS011;7657;50.140;7.076;2023-02-26T03:31:11;4.60;;;3.00;;
15112;SDS011;7657;50.140;7.076;2023-02-26T03:33:46;3.13;;;2.53;;
15112;SDS011;7657;50.140;7.076;2023-02-26T03:36:19;6.23;;;3.03;;
15112;SDS011;7657;50.140;7.076;2023-02-26T03:38:50;6.47;;;2.97;;
15112;SDS011;7657;50.140;7.076;2023-02-26T03:41:21;3.70;;;2.97;;
15112;SDS011;7657;50.140;7.076;2023-02-26T03:43:53;6.93;;;2.70;;
15112;SDS011;7657;50.140;7.076;2023-02-26T03:46:24;5.13;;;3.33;;
15112;SDS011;7657;50.140;7.076;2023-02-26T03:48:56;3.53;;;2.63;;
15112;SDS011;7657;50.140;7.076;2023-02-26T03:51:27;4.63;;;2.90;;
15112;SDS011;7657;50.140;7.076;2023-02-26T03:53:56;5.97;;;2.90;;
15112;SDS011;7657;50.140;7.076;2023-02-26T03:56:27;7.00;;;2.67;;
15112;SDS011;7657;50.140;7.076;2023-02-26T03:58:57;6.23;;;3.20;;
15112;SDS011;7657;50.140;7.076;2023-02-26T04:01:25;6.20;;;2.80;;
15112;SDS011;7657;50.140;7.076;2023-02-26T04:03:59;6.17;;;2.77;;
15112;SDS011;7657;50.140;7.076;2023-02-26T04:06:29;3.77;;;2.70;;
15112;SDS011;7657;50.140;7.076;2023-02-26T04:08:57;5.33;;;2.60;;
15112;SDS011;7657;50.140;7.076;2023-02-26T04:11:25;7.20;;;2.53;;
15112;SDS011;7657;50.140;7.076;2023-02-26T04:13:54;4.63;;;2.60;;
15112;SDS011;7657;50.140;7.076;2023-02-26T04:16:21;5.23;;;2.77;;
15112;SDS011;7657;50.140;7.076;2023-02-26T04:18:48;4.80;;;2.40;;
15112;SDS011;7657;50.140;7.076;2023-02-26T04:21:18;4.03;;;2.60;;
15112;SDS011;7657;50.140;7.076;2023-02-26T04:23:46;4.20;;;2.57;;
15112;SDS011;7657;50.140;7.076;2023-02-26T04:26:13;3.50;;;2.63;;
15112;SDS011;7657;50.140;7.076;2023-02-26T04:28:40;4.07;;;2.60;;
15112;SDS011;7657;50.140;7.076;2023-02-26T04:31:07;5.00;;;2.77;;
15112;SDS011;7657;50.140;7.076;2023-02-26T04:33:35;5.63;;;2.80;;
15112;SDS011;7657;50.140;7.076;2023-02-26T04:36:02;4.43;;;2.50;;
15112;SDS011;7657;50.140;7.076;2023-02-26T04:38:31;5.47;;;3.00;;
15112;SDS011;7657;50.140;7.076;2023-02-26T04:40:58;5.77;;;2.77;;
15112;SDS011;7657;50.140;7.076;2023-02-26T04:43:25;5.03;;;2.83;;
15112;SDS011;7657;50.140;7.076;2023-02-26T04:45:52;4.40;;;2.80;;
15112;SDS011;7657;50.140;7.076;2023-02-26T04:48:19;5.80;;;3.00;;
15112;SDS011;7657;50.140;7.076;2023-02-26T04:50:46;7.03;;;3.80;;
15112;SDS011;7657;50.140;7.076;2023-02-26T04:53:12;11.73;;;4.80;;
15112;SDS011;7657;50.140;7.076;2023-02-26T04:55:41;6.90;;;4.03;;
15112;SDS011;7657;50.140;7.076;2023-02-26T04:58:08;6.00;;;3.57;;
15112;SDS011;7657;50.140;7.076;2023-02-26T05:00:35;6.00;;;3.87;;
15112;SDS011;7657;50.140;7.076;2023-02-26T05:03:02;9.50;;;4.90;;
15112;SDS011;7657;50.140;7.076;2023-02-26T05:05:29;10.63;;;5.00;;
15112;SDS011;7657;50.140;7.076;2023-02-26T05:07:56;10.13;;;5.47;;
15112;SDS011;7657;50.140;7.076;2023-02-26T05:10:23;9.87;;;4.57;;
15112;SDS011;7657;50.140;7.076;2023-02-26T05:12:51;8.10;;;4.67;;
15112;SDS011;7657;50.140;7.076;2023-02-26T05:15:18;7.03;;;4.00;;
15112;SDS011;7657;50.140;7.076;2023-02-26T05:17:46;6.60;;;3.57;;
15112;SDS011;7657;50.140;7.076;2023-02-26T05:20:12;5.77;;;3.07;;
15112;SDS011;7657;50.140;7.076;2023-02-26T05:22:40;6.23;;;3.17;;
15112;SDS011;7657;50.140;7.076;2023-02-26T05:25:08;5.50;;;2.87;;
15112;SDS011;7657;50.140;7.076;2023-02-26T05:27:37;6.97;;;3.07;;
15112;SDS011;7657;50.140;7.076;2023-02-26T05:30:09;5.17;;;3.10;;
15112;SDS011;7657;50.140;7.076;2023-02-26T05:32:38;6.43;;;3.03;;
15112;SDS011;7657;50.140;7.076;2023-02-26T05:35:05;6.93;;;3.30;;
15112;SDS011;7657;50.140;7.076;2023-02-26T05:37:32;8.50;;;5.00;;
15112;SDS011;7657;50.140;7.076;2023-02-26T05:39:59;8.93;;;3.90;;
15112;SDS011;7657;50.140;7.076;2023-02-26T05:42:26;8.13;;;6.23;;
15112;SDS011;7657;50.140;7.076;2023-02-26T05:44:53;4.50;;;2.90;;
15112;SDS011;7657;50.140;7.076;2023-02-26T05:47:23;5.73;;;3.33;;
15112;SDS011;7657;50.140;7.076;2023-02-26T05:49:50;6.33;;;3.00;;
15112;SDS011;7657;50.140;7.076;2023-02-26T05:52:17;4.97;;;2.80;;
15112;SDS011;7657;50.140;7.076;2023-02-26T05:54:44;15.00;;;7.63;;
15112;SDS011;7657;50.140;7.076;2023-02-26T05:57:11;4.63;;;3.20;;
15112;SDS011;7657;50.140;7.076;2023-02-26T05:59:38;6.30;;;3.00;;
15112;SDS011;7657;50.140;7.076;2023-02-26T06:02:05;5.60;;;3.10;;
15112;SDS011;7657;50.140;7.076;2023-02-26T06:04:34;5.37;;;3.20;;
15112;SDS011;7657;50.140;7.076;2023-02-26T06:07:01;6.77;;;3.07;;
15112;SDS011;7657;50.140;7.076;2023-02-26T06:09:28;5.23;;;3.37;;
15112;SDS011;7657;50.140;7.076;2023-02-26T06:11:55;4.30;;;2.80;;
15112;SDS011;7657;50.140;7.076;2023-02-26T06:14:22;8.67;;;4.17;;
15112;SDS011;7657;50.140;7.076;2023-02-26T06:16:49;6.17;;;3.53;;
15112;SDS011;7657;50.140;7.076;2023-02-26T06:19:16;4.53;;;3.13;;
15112;SDS011;7657;50.140;7.076;2023-02-26T06:21:44;4.63;;;2.97;;
15112;SDS011;7657;50.140;7.076;2023-02-26T06:24:11;4.70;;;3.10;;
15112;SDS011;7657;50.140;7.076;2023-02-26T06:26:37;6.23;;;3.80;;
15112;SDS011;7657;50.140;7.076;2023-02-26T06:29:04;7.67;;;4.27;;
15112;SDS011;7657;50.140;7.076;2023-02-26T06:31:32;18.07;;;9.33;;
15112;SDS011;7657;50.140;7.076;2023-02-26T06:33:59;8.10;;;4.20;;
15112;SDS011;7657;50.140;7.076;2023-02-26T06:36:26;7.87;;;3.60;;
15112;SDS011;7657;50.140;7.076;2023-02-26T06:38:55;7.87;;;3.93;;
15112;SDS011;7657;50.140;7.076;2023-02-26T06:41:22;7.20;;;3.83;;
15112;SDS011;7657;50.140;7.076;2023-02-26T06:43:49;4.50;;;3.30;;
15112;SDS011;7657;50.140;7.076;2023-02-26T06:46:15;5.20;;;3.13;;
15112;SDS011;7657;50.140;7.076;2023-02-26T06:48:42;4.53;;;2.70;;
15112;SDS011;7657;50.140;7.076;2023-02-26T06:51:09;4.83;;;3.13;;
15112;SDS011;7657;50.140;7.076;2023-02-26T06:53:36;5.07;;;3.20;;
15112;SDS011;7657;50.140;7.076;2023-02-26T06:56:05;4.60;;;2.37;;
15112;SDS011;7657;50.140;7.076;2023-02-26T06:58:32;4.93;;;2.50;;
15112;SDS011;7657;50.140;7.076;2023-02-26T07:00:59;6.47;;;2.70;;
15112;SDS011;7657;50.140;7.076;2023-02-26T07:03:28;3.33;;;2.50;;
15112;SDS011;7657;50.140;7.076;2023-02-26T07:05:55;4.47;;;2.43;;
15112;SDS011;7657;50.140;7.076;2023-02-26T07:08:22;5.37;;;2.77;;
15112;SDS011;7657;50.140;7.076;2023-02-26T07:10:49;4.90;;;2.60;;
15112;SDS011;7657;50.140;7.076;2023-02-26T07:13:17;3.87;;;2.53;;
15112;SDS011;7657;50.140;7.076;2023-02-26T07:15:44;4.40;;;2.83;;
15112;SDS011;7657;50.140;7.076;2023-02-26T07:18:11;5.53;;;2.37;;
15112;SDS011;7657;50.140;7.076;2023-02-26T07:20:38;5.80;;;2.83;;
15112;SDS011;7657;50.140;7.076;2023-02-26T07:23:05;6.30;;;2.83;;
15112;SDS011;7657;50.140;7.076;2023-02-26T07:25:31;3.90;;;2.40;;
15112;SDS011;7657;50.140;7.076;2023-02-26T07:27:58;9.43;;;4.77;;
15112;SDS011;7657;50.140;7.076;2023-02-26T07:30:27;6.60;;;3.80;;
15112;SDS011;7657;50.140;7.076;2023-02-26T07:32:55;4.87;;;2.80;;
15112;SDS011;7657;50.140;7.076;2023-02-26T07:35:22;18.53;;;7.93;;
15112;SDS011;7657;50.140;7.076;2023-02-26T07:37:49;7.17;;;3.30;;
15112;SDS011;7657;50.140;7.076;2023-02-26T07:40:16;11.57;;;6.67;;
15112;SDS011;7657;50.140;7.076;2023-02-26T07:42:43;4.03;;;3.00;;
15112;SDS011;7657;50.140;7.076;2023-02-26T07:45:10;9.27;;;2.63;;
15112;SDS011;7657;50.140;7.076;2023-02-26T07:47:38;3.53;;;2.40;;
15112;SDS011;7657;50.140;7.076;2023-02-26T07:50:06;5.33;;;3.13;;
15112;SDS011;7657;50.140;7.076;2023-02-26T07:52:33;5.37;;;2.63;;
15112;SDS011;7657;50.140;7.076;2023-02-26T07:55:00;7.37;;;4.03;;
15112;SDS011;7657;50.140;7.076;2023-02-26T07:57:27;9.90;;;4.57;;
15112;SDS011;7657;50.140;7.076;2023-02-26T07:59:54;5.40;;;3.47;;
15112;SDS011;7657;50.140;7.076;2023-02-26T08:02:21;6.43;;;3.57;;
15112;SDS011;7657;50.140;7.076;2023-02-26T08:04:49;7.07;;;3.43;;
15112;SDS011;7657;50.140;7.076;2023-02-26T08:07:17;17.70;;;9.47;;
15112;SDS011;7657;50.140;7.076;2023-02-26T08:09:44;6.77;;;5.93;;
15112;SDS011;7657;50.140;7.076;2023-02-26T08:12:11;5.17;;;2.73;;
15112;SDS011;7657;50.140;7.076;2023-02-26T08:14:38;4.10;;;2.30;;
15112;SDS011;7657;50.140;7.076;2023-02-26T08:17:06;2.53;;;2.00;;
15112;SDS011;7657;50.140;7.076;2023-02-26T08:19:33;9.90;;;4.60;;
15112;SDS011;7657;50.140;7.076;2023-02-26T08:22:01;4.00;;;2.93;;
15112;SDS011;7657;50.140;7.076;2023-02-26T08:24:28;4.90;;;3.03;;
15112;SDS011;7657;50.140;7.076;2023-02-26T08:26:55;4.43;;;2.27;;
15112;SDS011;7657;50.140;7.076;2023-02-26T08:29:22;6.17;;;3.90;;
15112;SDS011;7657;50.140;7.076;2023-02-26T08:31:50;10.00;;;6.07;;
15112;SDS011;7657;50.140;7.076;2023-02-26T08:34:16;3.17;;;2.87;;
15112;SDS011;7657;50.140;7.076;2023-02-26T08:36:43;6.90;;;3.70;;
15112;SDS011;7657;50.140;7.076;2023-02-26T08:39:12;12.63;;;5.80;;
15112;SDS011;7657;50.140;7.076;2023-02-26T08:41:39;6.43;;;3.03;;
15112;SDS011;7657;50.140;7.076;2023-02-26T08:44:05;10.17;;;4.67;;
15112;SDS011;7657;50.140;7.076;2023-02-26T08:46:33;7.53;;;4.67;;
15112;SDS011;7657;50.140;7.076;2023-02-26T08:49:00;17.83;;;8.17;;
15112;SDS011;7657;50.140;7.076;2023-02-26T08:51:27;11.23;;;5.43;;
15112;SDS011;7657;50.140;7.076;2023-02-26T08:53:54;5.13;;;3.07;;
15112;SDS011;7657;50.140;7.076;2023-02-26T08:56:22;10.73;;;5.73;;
15112;SDS011;7657;50.140;7.076;2023-02-26T08:58:49;4.13;;;2.20;;
15112;SDS011;7657;50.140;7.076;2023-02-26T09:01:17;4.43;;;2.77;;
15112;SDS011;7657;50.140;7.076;2023-02-26T09:03:44;4.20;;;2.57;;
15112;SDS011;7657;50.140;7.076;2023-02-26T09:06:11;4.20;;;1.80;;
15112;SDS011;7657;50.140;7.076;2023-02-26T09:08:39;5.83;;;3.03;;
15112;SDS011;7657;50.140;7.076;2023-02-26T09:11:06;4.30;;;2.77;;
15112;SDS011;7657;50.140;7.076;2023-02-26T09:13:35;4.43;;;2.33;;
15112;SDS011;7657;50.140;7.076;2023-02-26T09:16:02;5.00;;;2.87;;
15112;SDS011;7657;50.140;7.076;2023-02-26T09:18:30;3.27;;;2.17;;
15112;SDS011;7657;50.140;7.076;2023-02-26T09:20:56;2.53;;;2.10;;
15112;SDS011;7657;50.140;7.076;2023-02-26T09:23:23;6.20;;;2.87;;
15112;SDS011;7657;50.140;7.076;2023-02-26T09:25:51;5.27;;;2.70;;
15112;SDS011;7657;50.140;7.076;2023-02-26T09:28:19;3.87;;;1.80;;
15112;SDS011;7657;50.140;7.076;2023-02-26T09:30:49;3.53;;;1.50;;
15112;SDS011;7657;50.140;7.076;2023-02-26T09:33:17;2.17;;;1.50;;
15112;SDS011;7657;50.140;7.076;2023-02-26T09:35:46;3.07;;;1.30;;
15112;SDS011;7657;50.140;7.076;2023-02-26T09:38:13;3.10;;;1.40;;
15112;SDS011;7657;50.140;7.076;2023-02-26T09:40:41;2.53;;;1.50;;
15112;SDS011;7657;50.140;7.076;2023-02-26T09:43:16;2.83;;;1.67;;
15112;SDS011;7657;50.140;7.076;2023-02-26T09:45:57;2.90;;;1.57;;
15112;SDS011;7657;50.140;7.076;2023-02-26T09:48:28;1.97;;;1.60;;
15112;SDS011;7657;50.140;7.076;2023-02-26T09:50:57;1.83;;;1.20;;
15112;SDS011;7657;50.140;7.076;2023-02-26T09:53:25;4.37;;;1.70;;
15112;SDS011;7657;50.140;7.076;2023-02-26T09:55:57;4.07;;;2.13;;
15112;SDS011;7657;50.140;7.076;2023-02-26T09:58:29;5.80;;;2.50;;
15112;SDS011;7657;50.140;7.076;2023-02-26T10:01:02;4.50;;;2.50;;
15112;SDS011;7657;50.140;7.076;2023-02-26T10:03:38;5.20;;;2.30;;
15112;SDS011;7657;50.140;7.076;2023-02-26T10:06:21;9.00;;;3.43;;
15112;SDS011;7657;50.140;7.076;2023-02-26T10:11:50;7.33;;;3.20;;
15112;SDS011;7657;50.140;7.076;2023-02-26T10:14:23;11.03;;;4.97;;
15112;SDS011;7657;50.140;7.076;2023-02-26T10:16:55;3.93;;;2.47;;
15112;SDS011;7657;50.140;7.076;2023-02-26T10:19:26;5.13;;;2.23;;
15112;SDS011;7657;50.140;7.076;2023-02-26T10:21:59;8.30;;;3.57;;
15112;SDS011;7657;50.140;7.076;2023-02-26T10:24:30;3.57;;;2.50;;
15112;SDS011;7657;50.140;7.076;2023-02-26T10:27:04;3.67;;;2.07;;
15112;SDS011;7657;50.140;7.076;2023-02-26T10:29:35;4.37;;;2.53;;
15112;SDS011;7657;50.140;7.076;2023-02-26T10:32:14;1.90;;;1.60;;
15112;SDS011;7657;50.140;7.076;2023-02-26T10:34:50;2.53;;;1.87;;
15112;SDS011;7657;50.140;7.076;2023-02-26T10:37:22;5.77;;;3.20;;
15112;SDS011;7657;50.140;7.076;2023-02-26T10:39:58;5.57;;;2.20;;
15112;SDS011;7657;50.140;7.076;2023-02-26T10:42:43;2.40;;;1.90;;
15112;SDS011;7657;50.140;7.076;2023-02-26T10:45:24;4.27;;;2.20;;
15112;SDS011;7657;50.140;7.076;2023-02-26T10:48:08;4.30;;;2.10;;
15112;SDS011;7657;50.140;7.076;2023-02-26T10:50:47;3.83;;;2.03;;
15112;SDS011;7657;50.140;7.076;2023-02-26T10:53:16;10.53;;;3.53;;
15112;SDS011;7657;50.140;7.076;2023-02-26T10:55:43;3.40;;;1.97;;
15112;SDS011;7657;50.140;7.076;2023-02-26T10:58:16;3.47;;;2.17;;
15112;SDS011;7657;50.140;7.076;2023-02-26T11:00:46;1.70;;;1.60;;
15112;SDS011;7657;50.140;7.076;2023-02-26T11:03:28;3.50;;;1.67;;
15112;SDS011;7657;50.140;7.076;2023-02-26T11:05:58;2.40;;;1.80;;
15112;SDS011;7657;50.140;7.076;2023-02-26T11:08:26;2.47;;;2.03;;
15112;SDS011;7657;50.140;7.076;2023-02-26T11:10:56;4.10;;;1.87;;
15112;SDS011;7657;50.140;7.076;2023-02-26T11:13:26;2.73;;;2.00;;
15112;SDS011;7657;50.140;7.076;2023-02-26T11:15:55;1.60;;;1.13;;
15112;SDS011;7657;50.140;7.076;2023-02-26T11:18:26;2.60;;;1.10;;
15112;SDS011;7657;50.140;7.076;2023-02-26T11:20:56;4.60;;;3.23;;
15112;SDS011;7657;50.140;7.076;2023-02-26T11:23:25;3.87;;;2.40;;
15112;SDS011;7657;50.140;7.076;2023-02-26T11:25:58;5.67;;;3.30;;
15112;SDS011;7657;50.140;7.076;2023-02-26T11:28:30;4.57;;;2.50;;
15112;SDS011;7657;50.140;7.076;2023-02-26T11:31:00;1.77;;;1.60;;
15112;SDS011;7657;50.140;7.076;2023-02-26T11:33:35;5.70;;;2.00;;
15112;SDS011;7657;50.140;7.076;2023-02-26T11:36:04;1.97;;;1.37;;
15112;SDS011;7657;50.140;7.076;2023-02-26T11:38:34;2.63;;;1.40;;
15112;SDS011;7657;50.140;7.076;2023-02-26T11:41:02;2.23;;;1.43;;
15112;SDS011;7657;50.140;7.076;2023-02-26T11:43:33;2.63;;;1.03;;
15112;SDS011;7657;50.140;7.076;2023-02-26T11:46:02;2.07;;;0.90;;
15112;SDS011;7657;50.140;7.076;2023-02-26T11:48:34;2.07;;;1.10;;
15112;SDS011;7657;50.140;7.076;2023-02-26T11:51:06;3.37;;;1.33;;
15112;SDS011;7657;50.140;7.076;2023-02-26T11:53:34;2.20;;;1.20;;
15112;SDS011;7657;50.140;7.076;2023-02-26T11:56:07;2.77;;;1.00;;
15112;SDS011;7657;50.140;7.076;2023-02-26T11:58:38;1.10;;;0.90;;
15112;SDS011;7657;50.140;7.076;2023-02-26T12:01:09;0.80;;;0.80;;
15112;SDS011;7657;50.140;7.076;2023-02-26T12:03:41;2.13;;;1.10;;
15112;SDS011;7657;50.140;7.076;2023-02-26T12:06:13;1.80;;;1.20;;
15112;SDS011;7657;50.140;7.076;2023-02-26T12:08:42;14.93;;;8.27;;
15112;SDS011;7657;50.140;7.076;2023-02-26T12:11:21;1.03;;;1.03;;
15112;SDS011;7657;50.140;7.076;2023-02-26T12:14:19;2.30;;;0.60;;
15112;SDS011;7657;50.140;7.076;2023-02-26T12:16:59;3.47;;;1.00;;
15112;SDS011;7657;50.140;7.076;2023-02-26T12:19:39;1.03;;;0.80;;
15112;SDS011;7657;50.140;7.076;2023-02-26T12:22:18;1.63;;;0.60;;
15112;SDS011;7657;50.140;7.076;2023-02-26T12:25:07;2.60;;;0.73;;
15112;SDS011;7657;50.140;7.076;2023-02-26T12:27:59;0.47;;;0.47;;
15112;SDS011;7657;50.140;7.076;2023-02-26T12:30:44;0.87;;;0.47;;
15112;SDS011;7657;50.140;7.076;2023-02-26T12:33:26;0.83;;;0.43;;
15112;SDS011;7657;50.140;7.076;2023-02-26T12:36:17;0.60;;;0.50;;
15112;SDS011;7657;50.140;7.076;2023-02-26T12:38:58;1.10;;;0.57;;
15112;SDS011;7657;50.140;7.076;2023-02-26T12:41:43;2.27;;;0.60;;
15112;SDS011;7657;50.140;7.076;2023-02-26T12:44:39;2.03;;;1.00;;
15112;SDS011;7657;50.140;7.076;2023-02-26T12:47:23;4.10;;;1.00;;
15112;SDS011;7657;50.140;7.076;2023-02-26T12:50:05;2.30;;;1.10;;
15112;SDS011;7657;50.140;7.076;2023-02-26T12:52:49;1.43;;;1.00;;
15112;SDS011;7657;50.140;7.076;2023-02-26T12:55:33;2.97;;;1.40;;
15112;SDS011;7657;50.140;7.076;2023-02-26T13:00:59;3.27;;;1.10;;
15112;SDS011;7657;50.140;7.076;2023-02-26T13:03:47;2.17;;;1.27;;
15112;SDS011;7657;50.140;7.076;2023-02-26T13:06:43;1.57;;;0.90;;
15112;SDS011;7657;50.140;7.076;2023-02-26T13:09:37;1.97;;;0.93;;
15112;SDS011;7657;50.140;7.076;2023-02-26T13:12:15;1.47;;;0.97;;
15112;SDS011;7657;50.140;7.076;2023-02-26T13:14:51;2.13;;;1.00;;
15112;SDS011;7657;50.140;7.076;2023-02-26T13:17:25;3.03;;;2.00;;
15112;SDS011;7657;50.140;7.076;2023-02-26T13:19:57;1.07;;;0.80;;
15112;SDS011;7657;50.140;7.076;2023-02-26T13:22:27;2.13;;;1.13;;
15112;SDS011;7657;50.140;7.076;2023-02-26T13:25:00;1.97;;;1.10;;
15112;SDS011;7657;50.140;7.076;2023-02-26T13:27:30;5.40;;;3.23;;
15112;SDS011;7657;50.140;7.076;2023-02-26T13:30:12;5.80;;;3.77;;
15112;SDS011;7657;50.140;7.076;2023-02-26T13:32:45;2.53;;;1.20;;
15112;SDS011;7657;50.140;7.076;2023-02-26T13:35:18;2.53;;;1.13;;
15112;SDS011;7657;50.140;7.076;2023-02-26T13:37:48;2.57;;;1.07;;
15112;SDS011;7657;50.140;7.076;2023-02-26T13:40:24;4.27;;;2.90;;
15112;SDS011;7657;50.140;7.076;2023-02-26T13:43:20;4.47;;;3.10;;
15112;SDS011;7657;50.140;7.076;2023-02-26T13:45:57;3.43;;;1.47;;
15112;SDS011;7657;50.140;7.076;2023-02-26T13:48:37;2.57;;;1.50;;
15112;SDS011;7657;50.140;7.076;2023-02-26T13:51:11;4.10;;;1.90;;
15112;SDS011;7657;50.140;7.076;2023-02-26T13:53:51;3.70;;;1.43;;
15112;SDS011;7657;50.140;7.076;2023-02-26T13:56:23;2.90;;;0.60;;
15112;SDS011;7657;50.140;7.076;2023-02-26T14:02:33;0.77;;;0.77;;
15112;SDS011;7657;50.140;7.076;2023-02-26T14:14:25;1.83;;;0.90;;
15112;SDS011;7657;50.140;7.076;2023-02-26T14:22:51;2.17;;;0.90;;
15112;SDS011;7657;50.140;7.076;2023-02-26T14:25:26;2.33;;;1.30;;
15112;SDS011;7657;50.140;7.076;2023-02-26T14:28:20;4.03;;;1.50;;
15112;SDS011;7657;50.140;7.076;2023-02-26T14:31:05;3.80;;;1.53;;
15112;SDS011;7657;50.140;7.076;2023-02-26T14:33:42;0.80;;;0.80;;
15112;SDS011;7657;50.140;7.076;2023-02-26T14:36:14;0.60;;;0.60;;
15112;SDS011;7657;50.140;7.076;2023-02-26T14:38:43;1.50;;;0.80;;
15112;SDS011;7657;50.140;7.076;2023-02-26T14:41:12;0.90;;;0.47;;
15112;SDS011;7657;50.140;7.076;2023-02-26T14:43:53;1.37;;;0.90;;
15112;SDS011;7657;50.140;7.076;2023-02-26T14:46:25;0.70;;;0.57;;
15112;SDS011;7657;50.140;7.076;2023-02-26T14:48:52;0.90;;;0.67;;
15112;SDS011;7657;50.140;7.076;2023-02-26T14:51:21;1.00;;;0.77;;
15112;SDS011;7657;50.140;7.076;2023-02-26T14:54:05;1.80;;;1.20;;
15112;SDS011;7657;50.140;7.076;2023-02-26T14:56:51;0.97;;;0.70;;
15112;SDS011;7657;50.140;7.076;2023-02-26T14:59:31;1.17;;;0.73;;
15112;SDS011;7657;50.140;7.076;2023-02-26T15:02:18;1.03;;;0.90;;
15112;SDS011;7657;50.140;7.076;2023-02-26T15:07:43;3.17;;;1.13;;
15112;SDS011;7657;50.140;7.076;2023-02-26T15:10:35;2.30;;;0.93;;
15112;SDS011;7657;50.140;7.076;2023-02-26T15:13:18;1.93;;;1.40;;
15112;SDS011;7657;50.140;7.076;2023-02-26T15:16:09;1.97;;;1.40;;
15112;SDS011;7657;50.140;7.076;2023-02-26T15:19:00;1.13;;;0.90;;
15112;SDS011;7657;50.140;7.076;2023-02-26T15:21:39;2.20;;;0.93;;
15112;SDS011;7657;50.140;7.076;2023-02-26T15:24:16;0.87;;;0.67;;
15112;SDS011;7657;50.140;7.076;2023-02-26T15:26:45;0.93;;;0.60;;
15112;SDS011;7657;50.140;7.076;2023-02-26T15:29:14;1.03;;;0.93;;
15112;SDS011;7657;50.140;7.076;2023-02-26T15:31:44;1.60;;;0.77;;
15112;SDS011;7657;50.140;7.076;2023-02-26T15:34:18;1.53;;;0.70;;
15112;SDS011;7657;50.140;7.076;2023-02-26T15:36:47;2.40;;;0.73;;
15112;SDS011;7657;50.140;7.076;2023-02-26T15:39:16;1.20;;;0.77;;
15112;SDS011;7657;50.140;7.076;2023-02-26T15:41:45;1.20;;;0.60;;
15112;SDS011;7657;50.140;7.076;2023-02-26T15:44:13;1.20;;;0.80;;
15112;SDS011;7657;50.140;7.076;2023-02-26T15:46:46;1.13;;;0.50;;
15112;SDS011;7657;50.140;7.076;2023-02-26T15:49:19;1.33;;;0.77;;
15112;SDS011;7657;50.140;7.076;2023-02-26T15:51:53;0.97;;;0.90;;
15112;SDS011;7657;50.140;7.076;2023-02-26T15:54:22;1.13;;;0.93;;